createdAt,value
2023-03-27T00:00:25.249Z,99020.56
2023-03-27T00:05:47.124Z,99017.22
2023-03-27T00:11:09.540Z,99012.19
2023-03-27T00:16:31.469Z,99000.56
2023-03-27T00:21:53.345Z,99008.63
2023-03-27T00:27:15.318Z,99010.34
2023-03-27T00:32:37.247Z,98996.06
2023-03-27T00:37:59.121Z,99014.34
2023-03-27T00:43:23.665Z,99005.28
2023-03-27T00:48:50.092Z,98991.13
2023-03-27T00:54:15.384Z,99002.75
2023-03-27T00:59:40.236Z,98964.81
2023-03-27T01:05:02.384Z,98966.06
2023-03-27T01:10:47.980Z,98962.94
2023-03-27T01:16:52.274Z,98973.53
2023-03-27T01:22:38.939Z,98987.78
2023-03-27T01:28:31.049Z,98999.03
2023-03-27T01:34:30.655Z,98995.84
2023-03-27T01:40:00.370Z,98975.72
2023-03-27T01:45:51.400Z,98994.66
2023-03-27T01:51:28.127Z,99005.06
2023-03-27T01:57:00.556Z,98999.75
2023-03-27T02:02:29.488Z,99011.59
2023-03-27T02:08:01.556Z,99008.50
2023-03-27T02:13:29.214Z,98998.69
2023-03-27T02:18:59.003Z,99010.84
2023-03-27T02:24:20.846Z,99015.81
2023-03-27T02:30:00.300Z,99014.22
2023-03-27T02:35:48.746Z,99016.94
2023-03-27T02:41:37.046Z,99016.47
2023-03-27T02:47:01.875Z,99017.50
2023-03-27T02:52:28.770Z,99016.31
2023-03-27T02:57:57.846Z,99012.06
2023-03-27T03:03:28.508Z,99013.63
2023-03-27T03:08:50.559Z,99008.13
2023-03-27T03:14:12.867Z,98999.91
2023-03-27T03:19:34.719Z,99015.13
2023-03-27T03:24:56.562Z,99024.56
2023-03-27T03:30:18.476Z,99019.56
2023-03-27T03:35:40.929Z,99024.94
2023-03-27T03:41:02.807Z,99021.66
2023-03-27T03:46:24.710Z,99024.22
2023-03-27T03:51:46.665Z,99028.34
2023-03-27T03:57:08.599Z,99012.53
2023-03-27T04:02:30.892Z,99017.03
2023-03-27T04:07:52.961Z,99027.50
2023-03-27T04:13:14.898Z,99034.94
2023-03-27T04:18:36.794Z,99020.34
2023-03-27T04:23:58.957Z,99043.03
2023-03-27T04:29:20.813Z,99033.66
2023-03-27T04:34:42.675Z,99025.28
2023-03-27T04:40:04.884Z,99041.91
2023-03-27T04:45:26.842Z,99049.97
2023-03-27T04:50:49.394Z,99053.41
2023-03-27T04:56:11.788Z,99058.78
2023-03-27T05:01:33.943Z,99057.50
2023-03-27T05:06:57.535Z,99068.13
2023-03-27T05:12:20.664Z,99062.19
2023-03-27T05:17:44.465Z,99057.22
2023-03-27T05:23:06.322Z,99063.50
2023-03-27T05:28:29.595Z,99057.94
2023-03-27T05:33:52.322Z,99067.13
2023-03-27T05:39:14.170Z,99081.59
2023-03-27T05:44:36.027Z,99078.69
2023-03-27T05:49:58.056Z,99083.09
2023-03-27T05:55:19.921Z,99083.00
2023-03-27T06:00:42.656Z,99098.94
2023-03-27T06:06:09.382Z,99112.81
2023-03-27T06:11:31.232Z,99097.50
2023-03-27T06:16:53.070Z,99109.41
2023-03-27T06:22:14.906Z,99099.75
2023-03-27T06:27:36.867Z,99108.47
2023-03-27T06:32:59.882Z,99118.44
2023-03-27T06:38:21.851Z,99132.25
2023-03-27T06:43:43.970Z,99144.00
2023-03-27T06:49:05.847Z,99132.44
2023-03-27T06:54:27.696Z,99138.72
2023-03-27T06:59:50.114Z,99143.91
2023-03-27T07:05:12.750Z,99142.31
2023-03-27T07:10:35.042Z,99149.50
2023-03-27T07:15:56.927Z,99150.44
2023-03-27T07:21:18.787Z,99152.50
2023-03-27T07:26:40.667Z,99150.84
2023-03-27T07:32:07.836Z,99162.56
2023-03-27T07:37:30.926Z,99161.56
2023-03-27T07:42:53.271Z,99161.81
2023-03-27T07:48:15.129Z,99154.69
2023-03-27T07:53:37.001Z,99157.88
2023-03-27T07:58:59.117Z,99170.00
2023-03-27T08:04:21.346Z,99176.75
2023-03-27T08:09:43.312Z,99193.06
2023-03-27T08:15:06.995Z,99191.88
2023-03-27T08:20:28.872Z,99184.75
2023-03-27T08:25:50.732Z,99202.59
2023-03-27T08:31:15.304Z,99200.44
2023-03-27T08:36:37.389Z,99220.22
2023-03-27T08:42:02.886Z,99219.00
2023-03-27T08:47:34.157Z,99232.63
2023-03-27T08:52:56.067Z,99244.56
2023-03-27T08:58:20.869Z,99256.28
2023-03-27T09:03:51.055Z,99257.47
2023-03-27T09:09:31.389Z,99250.72
2023-03-27T09:15:05.165Z,99255.06
2023-03-27T09:20:34.912Z,99264.25
2023-03-27T09:26:01.870Z,99277.28
2023-03-27T09:31:28.809Z,99287.94
2023-03-27T09:36:51.082Z,99282.16
2023-03-27T09:42:21.253Z,99291.97
2023-03-27T09:47:48.278Z,99285.28
2023-03-27T09:53:16.160Z,99292.00
2023-03-27T09:58:42.028Z,99294.56
2023-03-27T10:04:18.929Z,99299.38
2023-03-27T10:09:40.849Z,99305.72
2023-03-27T10:15:06.043Z,99324.69
2023-03-27T10:20:28.237Z,99320.50
2023-03-27T10:25:52.129Z,99330.78
2023-03-27T10:31:36.491Z,99320.72
2023-03-27T10:36:59.052Z,99349.03
2023-03-27T10:42:21.171Z,99330.25
2023-03-27T10:47:47.822Z,99336.25
2023-03-27T10:53:12.774Z,99346.09
2023-03-27T10:58:54.731Z,99352.53
2023-03-27T11:04:25.329Z,99340.16
2023-03-27T11:10:14.221Z,99347.03
2023-03-27T11:16:25.556Z,99353.41
2023-03-27T11:21:53.355Z,99353.47
2023-03-27T11:27:22.361Z,99356.03
2023-03-27T11:33:04.521Z,99354.00
2023-03-27T11:38:32.338Z,99351.56
2023-03-27T11:43:54.225Z,99345.94
2023-03-27T11:49:34.448Z,99347.09
2023-03-27T11:55:04.824Z,99339.53
2023-03-27T12:00:36.512Z,99339.38
2023-03-27T12:06:26.775Z,99340.56
2023-03-27T12:12:00.135Z,99349.25
2023-03-27T12:17:57.185Z,99324.25
2023-03-27T12:23:30.666Z,99350.09
2023-03-27T12:29:24.407Z,99350.41
2023-03-27T12:34:51.720Z,99353.91
2023-03-27T12:40:40.777Z,99347.31
2023-03-27T12:46:13.981Z,99366.63
2023-03-27T12:51:54.266Z,99363.75
2023-03-27T12:57:21.951Z,99367.97
2023-03-27T13:03:13.268Z,99376.84
2023-03-27T13:09:13.649Z,99383.03
2023-03-27T13:14:45.968Z,99384.38
2023-03-27T13:20:36.428Z,99393.50
2023-03-27T13:26:18.522Z,99399.59
2023-03-27T13:31:46.439Z,99408.53
2023-03-27T13:37:11.304Z,99412.53
2023-03-27T13:42:41.507Z,99414.97
2023-03-27T13:48:28.259Z,99432.53
2023-03-27T13:54:37.284Z,99437.78
2023-03-27T14:00:19.715Z,99441.56
2023-03-27T14:06:09.518Z,99467.97
2023-03-27T14:12:00.344Z,99472.88
2023-03-27T14:17:44.770Z,99489.69
2023-03-27T14:23:19.538Z,99470.78
2023-03-27T14:28:41.596Z,99507.25
2023-03-27T14:34:13.651Z,99512.59
2023-03-27T14:39:37.611Z,99500.56
2023-03-27T14:45:19.969Z,99538.44
2023-03-27T14:50:42.055Z,99550.44
2023-03-27T14:56:08.339Z,99565.97
2023-03-27T15:01:30.658Z,99579.19
2023-03-27T15:06:52.719Z,99574.53
2023-03-27T15:12:14.704Z,99576.47
2023-03-27T15:17:36.697Z,99597.84
2023-03-27T15:23:23.431Z,99630.34
2023-03-27T15:29:09.262Z,99655.94
2023-03-27T15:34:40.564Z,99649.72
2023-03-27T15:40:03.973Z,99650.34
2023-03-27T15:45:36.511Z,99661.84
2023-03-27T15:51:11.543Z,99667.78
2023-03-27T15:56:42.667Z,99666.22
2023-03-27T16:02:13.808Z,99704.53
2023-03-27T16:07:38.648Z,99708.84
2023-03-27T16:13:02.101Z,99723.94
2023-03-27T16:18:35.266Z,99683.59
2023-03-27T16:23:57.156Z,99733.53
2023-03-27T16:29:19.008Z,99743.75
2023-03-27T16:34:40.859Z,99760.75
2023-03-27T16:40:02.804Z,99762.63
2023-03-27T16:45:25.690Z,99770.47
2023-03-27T16:50:47.666Z,99781.63
2023-03-27T16:56:10.205Z,99792.63
2023-03-27T17:01:32.177Z,99813.00
2023-03-27T17:06:54.992Z,99823.91
2023-03-27T17:12:17.655Z,99815.63
2023-03-27T17:17:39.897Z,99850.59
2023-03-27T17:23:02.330Z,99853.34
2023-03-27T17:28:24.292Z,99839.06
2023-03-27T17:33:46.472Z,99859.38
2023-03-27T17:39:08.290Z,99866.94
2023-03-27T17:44:30.169Z,99883.94
2023-03-27T17:49:52.048Z,99887.38
2023-03-27T17:55:13.989Z,99906.06
2023-03-27T18:00:37.014Z,99906.94
2023-03-27T18:06:03.332Z,99920.50
2023-03-27T18:11:25.223Z,99918.16
2023-03-27T18:16:47.131Z,99936.00
2023-03-27T18:22:09.031Z,99930.03
2023-03-27T18:27:30.877Z,99944.41
2023-03-27T18:32:52.975Z,99936.03
2023-03-27T18:38:14.920Z,99963.25
2023-03-27T18:43:37.115Z,99973.41
2023-03-27T18:49:00.665Z,99978.56
2023-03-27T18:54:25.502Z,99988.75
2023-03-27T18:59:48.749Z,99973.47
2023-03-27T19:05:11.373Z,99987.88
2023-03-27T19:10:37.414Z,99989.59
2023-03-27T19:16:00.092Z,99973.47
2023-03-27T19:21:22.169Z,99991.28
2023-03-27T19:26:44.910Z,99983.66
2023-03-27T19:32:06.828Z,99977.72
2023-03-27T19:37:28.848Z,100006.53
2023-03-27T19:42:50.821Z,100002.28
2023-03-27T19:48:12.883Z,100016.69
2023-03-27T19:53:34.903Z,100020.88
2023-03-27T19:58:56.909Z,100020.03
2023-03-27T20:04:18.862Z,100037.78
2023-03-27T20:09:40.736Z,100030.09
2023-03-27T20:20:29.388Z,100039.44
2023-03-27T20:25:51.312Z,100042.78
2023-03-27T20:31:13.275Z,100047.00
2023-03-27T20:36:35.914Z,100063.00
2023-03-27T20:41:57.822Z,100062.16
2023-03-27T20:47:19.955Z,100050.28
2023-03-27T20:52:43.034Z,100056.00
2023-03-27T20:58:04.987Z,100050.06
2023-03-27T21:03:26.961Z,100058.56
2023-03-27T21:08:48.976Z,100058.47
2023-03-27T21:14:11.040Z,100070.28
2023-03-27T21:19:32.978Z,100062.66
2023-03-27T21:24:54.987Z,100049.75
2023-03-27T21:30:17.264Z,100054.00
2023-03-27T21:35:41.380Z,100057.31
2023-03-27T21:41:04.532Z,100058.09
2023-03-27T21:46:26.484Z,100054.66
2023-03-27T21:51:48.382Z,100064.78
2023-03-27T21:57:10.321Z,100049.59
2023-03-27T22:02:32.280Z,100034.31
2023-03-27T22:07:54.288Z,100037.72
2023-03-27T22:13:16.200Z,100045.34
2023-03-27T22:18:38.364Z,100056.31
2023-03-27T22:24:00.273Z,100057.03
2023-03-27T22:29:22.260Z,100057.06
2023-03-27T22:34:44.122Z,100060.50
2023-03-27T22:40:07.636Z,100067.19
2023-03-27T22:45:29.980Z,100058.72
2023-03-27T22:50:56.802Z,100052.84
2023-03-27T22:56:18.724Z,100054.50
2023-03-27T23:01:40.792Z,100033.31
2023-03-27T23:07:02.883Z,100052.72
2023-03-27T23:12:24.919Z,100059.47
2023-03-27T23:17:46.948Z,100083.97
2023-03-27T23:23:08.862Z,100083.00
2023-03-27T23:28:33.659Z,100092.28
2023-03-27T23:33:55.653Z,100082.88
2023-03-27T23:39:17.499Z,100094.72
2023-03-27T23:44:39.618Z,100103.19
2023-03-27T23:50:01.455Z,100099.72
2023-03-27T23:55:23.308Z,100095.47
